createdAt,value
2022-12-14T00:00:30.948Z,22.13
2022-12-14T00:03:00.923Z,23.37
2022-12-14T00:05:30.723Z,28.20
2022-12-14T00:08:00.544Z,24.60
2022-12-14T00:10:30.824Z,23.70
2022-12-14T00:13:01.115Z,19.63
2022-12-14T00:15:31.257Z,16.65
2022-12-14T00:18:01.525Z,21.63
2022-12-14T00:20:31.333Z,21.12
2022-12-14T00:23:01.213Z,20.60
2022-12-14T00:25:31.605Z,19.60
2022-12-14T00:28:01.635Z,17.90
2022-12-14T00:30:31.367Z,18.52
2022-12-14T00:33:01.104Z,19.43
2022-12-14T00:35:30.845Z,20.23
2022-12-14T00:38:00.562Z,16.93
2022-12-14T00:40:30.002Z,22.43
2022-12-14T00:42:59.753Z,20.73
2022-12-14T00:45:29.777Z,19.62
2022-12-14T00:47:59.538Z,17.20
2022-12-14T00:50:29.369Z,16.10
2022-12-14T00:52:59.092Z,18.33
2022-12-14T00:55:28.824Z,16.97
2022-12-14T00:57:58.556Z,20.40
2022-12-14T01:00:28.159Z,16.90
2022-12-14T01:02:58.188Z,17.95
2022-12-14T01:05:27.914Z,19.87
2022-12-14T01:07:57.834Z,18.33
2022-12-14T01:10:27.631Z,17.03
2022-12-14T01:12:57.727Z,20.20
2022-12-14T01:15:27.450Z,18.77
2022-12-14T01:17:57.178Z,17.37
2022-12-14T01:20:26.917Z,18.67
2022-12-14T01:22:57.373Z,18.32
2022-12-14T01:25:27.274Z,18.57
2022-12-14T01:27:57.301Z,19.07
2022-12-14T01:30:26.732Z,19.63
2022-12-14T01:32:56.469Z,17.23
2022-12-14T01:35:26.189Z,15.57
2022-12-14T01:37:56.206Z,17.85
2022-12-14T01:40:25.673Z,15.67
2022-12-14T01:42:55.715Z,16.67
2022-12-14T01:45:25.372Z,16.90
2022-12-14T01:48:01.024Z,16.87
2022-12-14T01:53:06.319Z,15.43
2022-12-14T01:55:41.466Z,19.27
2022-12-14T01:58:21.827Z,17.32
2022-12-14T02:00:56.452Z,17.20
2022-12-14T02:03:40.851Z,19.50
2022-12-14T02:06:17.175Z,18.53
2022-12-14T02:08:48.786Z,15.53
2022-12-14T02:11:21.545Z,18.90
2022-12-14T02:13:51.284Z,19.00
2022-12-14T02:16:20.799Z,19.42
2022-12-14T02:18:50.533Z,17.97
2022-12-14T02:21:23.674Z,16.90
2022-12-14T02:24:02.356Z,18.30
2022-12-14T02:26:55.882Z,20.43
2022-12-14T02:29:37.531Z,19.23
2022-12-14T02:32:33.227Z,18.15
2022-12-14T02:35:20.616Z,19.77
2022-12-14T02:38:05.294Z,17.82
2022-12-14T02:40:40.906Z,22.03
2022-12-14T02:45:46.509Z,20.23
2022-12-14T02:48:37.741Z,22.48
2022-12-14T02:51:29.626Z,21.95
2022-12-14T02:54:05.329Z,19.83
2022-12-14T02:56:42.612Z,18.05
2022-12-14T02:59:14.971Z,19.43
2022-12-14T03:01:47.205Z,23.13
2022-12-14T03:04:17.833Z,19.85
2022-12-14T03:06:53.485Z,17.57
2022-12-14T03:09:23.087Z,21.70
2022-12-14T03:12:07.650Z,20.70
2022-12-14T03:14:43.296Z,21.60
2022-12-14T03:17:19.837Z,20.83
2022-12-14T03:19:58.557Z,22.17
2022-12-14T03:22:31.267Z,18.03
2022-12-14T03:25:04.351Z,20.65
2022-12-14T03:27:39.810Z,16.10
2022-12-14T03:30:23.766Z,22.47
2022-12-14T03:32:53.101Z,18.97
2022-12-14T03:35:31.283Z,19.10
2022-12-14T03:38:07.085Z,17.75
2022-12-14T03:40:45.300Z,17.27
2022-12-14T03:43:30.546Z,20.82
2022-12-14T03:46:18.196Z,19.07
2022-12-14T03:48:57.141Z,16.70
2022-12-14T03:51:41.547Z,16.53
2022-12-14T03:54:26.497Z,19.27
2022-12-14T03:57:04.544Z,19.10
2022-12-14T03:59:54.513Z,19.07
2022-12-14T04:02:30.290Z,19.37
2022-12-14T04:05:08.895Z,17.40
2022-12-14T04:07:53.690Z,15.20
2022-12-14T04:10:49.567Z,22.83
2022-12-14T04:13:39.370Z,22.30
2022-12-14T04:16:29.953Z,18.90
2022-12-14T04:19:03.352Z,17.43
2022-12-14T04:21:41.764Z,21.80
2022-12-14T04:24:54.891Z,17.98
2022-12-14T04:27:36.375Z,16.85
2022-12-14T04:30:09.965Z,17.80
2022-12-14T04:32:51.832Z,19.57
2022-12-14T04:35:36.708Z,22.48
2022-12-14T04:43:18.660Z,17.80
2022-12-14T04:46:00.226Z,17.17
2022-12-14T04:48:44.648Z,17.85
2022-12-14T04:51:33.615Z,14.20
2022-12-14T04:54:21.247Z,23.07
2022-12-14T04:56:54.323Z,18.25
2022-12-14T04:59:25.890Z,19.60
2022-12-14T05:02:01.629Z,19.10
2022-12-14T05:04:47.799Z,21.90
2022-12-14T05:07:26.065Z,18.13
2022-12-14T05:10:13.567Z,19.05
2022-12-14T05:13:05.597Z,15.90
2022-12-14T05:15:43.910Z,16.77
2022-12-14T05:18:17.328Z,17.57
2022-12-14T05:20:48.002Z,20.40
2022-12-14T05:23:18.738Z,20.00
2022-12-14T05:25:49.231Z,19.23
2022-12-14T05:28:19.110Z,17.80
2022-12-14T05:30:49.366Z,14.85
2022-12-14T05:33:21.277Z,16.30
2022-12-14T05:35:51.005Z,15.73
2022-12-14T05:38:20.441Z,19.95
2022-12-14T05:40:50.183Z,17.43
2022-12-14T05:43:19.902Z,15.20
2022-12-14T05:45:49.658Z,12.97
2022-12-14T05:48:19.370Z,17.83
2022-12-14T05:50:49.112Z,16.13
2022-12-14T05:53:19.366Z,16.50
2022-12-14T05:55:53.019Z,12.80
2022-12-14T05:58:23.034Z,17.87
2022-12-14T06:00:52.772Z,17.80
2022-12-14T06:03:22.787Z,19.25
2022-12-14T06:05:52.539Z,17.70
2022-12-14T06:08:22.653Z,18.15
2022-12-14T06:10:52.943Z,16.53
2022-12-14T06:13:22.966Z,14.53
2022-12-14T06:15:52.786Z,19.13
2022-12-14T06:18:24.117Z,17.20
2022-12-14T06:20:54.170Z,18.07
2022-12-14T06:23:24.017Z,14.83
2022-12-14T06:25:56.772Z,14.77
2022-12-14T06:28:26.509Z,15.68
2022-12-14T06:30:57.864Z,18.97
2022-12-14T06:33:28.116Z,19.83
2022-12-14T06:35:58.031Z,19.73
2022-12-14T06:38:27.684Z,14.67
2022-12-14T06:40:57.599Z,15.40
2022-12-14T06:43:28.384Z,16.07
2022-12-14T06:45:58.407Z,19.60
2022-12-14T06:48:27.815Z,16.43
2022-12-14T06:51:02.476Z,18.37
2022-12-14T06:53:32.653Z,17.00
2022-12-14T06:56:13.583Z,21.43
2022-12-14T06:58:43.473Z,22.00
2022-12-14T07:01:16.171Z,16.03
2022-12-14T07:03:48.617Z,17.12
2022-12-14T07:06:19.291Z,20.77
2022-12-14T07:08:49.993Z,24.47
2022-12-14T07:11:19.454Z,22.55
2022-12-14T07:13:49.266Z,20.43
2022-12-14T07:16:21.857Z,18.48
2022-12-14T07:18:52.328Z,19.03
2022-12-14T07:21:22.852Z,21.30
2022-12-14T07:23:53.510Z,22.37
2022-12-14T07:26:26.077Z,20.92
2022-12-14T07:28:56.354Z,19.90
2022-12-14T07:31:28.368Z,24.63
2022-12-14T07:34:00.281Z,17.70
2022-12-14T07:36:32.805Z,18.17
2022-12-14T07:39:02.371Z,20.40
2022-12-14T07:41:32.387Z,17.70
2022-12-14T07:44:02.436Z,23.80
2022-12-14T07:46:32.890Z,19.50
2022-12-14T07:49:03.452Z,22.50
2022-12-14T07:51:36.187Z,17.53
2022-12-14T07:54:07.722Z,21.27
2022-12-14T07:56:39.954Z,18.87
2022-12-14T07:59:11.665Z,23.47
2022-12-14T08:01:42.932Z,18.50
2022-12-14T08:04:18.775Z,18.90
2022-12-14T08:06:49.423Z,22.73
2022-12-14T08:09:20.189Z,21.37
2022-12-14T08:11:50.068Z,19.40
2022-12-14T08:14:20.365Z,22.42
2022-12-14T08:16:51.348Z,21.27
2022-12-14T08:19:21.520Z,26.30
2022-12-14T08:21:51.257Z,23.07
2022-12-14T08:24:21.268Z,22.45
2022-12-14T08:26:51.003Z,21.70
2022-12-14T08:29:22.255Z,24.43
2022-12-14T08:31:52.920Z,21.60
2022-12-14T08:34:22.686Z,22.37
2022-12-14T08:36:52.594Z,21.70
2022-12-14T08:39:22.712Z,23.20
2022-12-14T08:41:52.967Z,21.82
2022-12-14T08:44:22.419Z,21.13
2022-12-14T08:46:52.199Z,21.17
2022-12-14T08:49:21.656Z,23.75
2022-12-14T08:51:51.385Z,22.40
2022-12-14T08:54:21.135Z,21.95
2022-12-14T08:56:51.842Z,25.97
2022-12-14T08:59:52.223Z,25.00
2022-12-14T09:01:53.223Z,19.27
2022-12-14T09:04:23.066Z,18.62
2022-12-14T09:06:54.105Z,26.52
2022-12-14T09:09:23.918Z,23.70
2022-12-14T09:11:53.766Z,22.67
2022-12-14T09:14:23.332Z,22.33
2022-12-14T09:16:53.082Z,22.57
2022-12-14T09:19:22.834Z,22.37
2022-12-14T09:21:52.616Z,25.03
2022-12-14T09:24:24.001Z,24.20
2022-12-14T09:26:53.821Z,23.07
2022-12-14T09:29:23.861Z,24.47
2022-12-14T09:31:54.626Z,27.37
2022-12-14T09:34:25.290Z,25.33
2022-12-14T09:36:55.044Z,22.07
2022-12-14T09:39:25.571Z,25.10
2022-12-14T09:42:17.511Z,25.50
2022-12-14T09:45:02.046Z,27.00
2022-12-14T09:47:43.154Z,23.67
2022-12-14T09:50:18.423Z,27.15
2022-12-14T09:52:53.602Z,23.87
2022-12-14T09:55:38.539Z,24.02
2022-12-14T09:58:29.542Z,25.53
2022-12-14T10:01:25.217Z,23.87
2022-12-14T10:04:14.359Z,25.93
2022-12-14T10:06:53.084Z,26.23
2022-12-14T10:09:43.715Z,27.40
2022-12-14T10:12:37.124Z,23.92
2022-12-14T10:15:11.156Z,23.25
2022-12-14T10:18:01.107Z,26.77
2022-12-14T10:20:46.289Z,27.00
2022-12-14T10:23:22.928Z,28.17
2022-12-14T10:28:36.136Z,23.07
2022-12-14T10:31:09.257Z,22.07
2022-12-14T10:33:42.177Z,23.20
2022-12-14T10:36:33.361Z,22.82
2022-12-14T10:39:05.531Z,24.35
2022-12-14T10:41:57.795Z,24.35
2022-12-14T10:44:30.589Z,23.87
2022-12-14T10:47:03.579Z,29.67
2022-12-14T10:49:45.155Z,23.37
2022-12-14T10:52:19.185Z,22.63
2022-12-14T10:54:51.967Z,20.47
2022-12-14T10:57:27.948Z,19.87
2022-12-14T11:00:08.339Z,20.92
2022-12-14T11:02:30.681Z,31.20
2022-12-14T11:05:05.106Z,23.57
2022-12-14T11:07:40.288Z,23.63
2022-12-14T11:10:19.133Z,24.00
2022-12-14T11:13:15.521Z,23.70
2022-12-14T11:15:47.746Z,22.57
2022-12-14T11:18:20.611Z,19.88
2022-12-14T11:21:05.270Z,23.33
2022-12-14T11:23:40.299Z,22.03
2022-12-14T11:26:16.307Z,21.87
2022-12-14T11:28:54.570Z,20.43
2022-12-14T11:31:32.949Z,24.33
2022-12-14T11:34:05.626Z,19.30
2022-12-14T11:36:37.947Z,19.70
2022-12-14T11:39:16.894Z,21.27
2022-12-14T11:41:52.058Z,20.00
2022-12-14T11:44:27.259Z,18.50
2022-12-14T11:47:02.445Z,23.97
2022-12-14T11:49:43.791Z,18.60
2022-12-14T11:52:21.665Z,16.25
2022-12-14T11:54:59.980Z,22.03
2022-12-14T11:57:32.741Z,20.00
2022-12-14T12:00:11.235Z,19.00
2022-12-14T12:02:50.333Z,18.50
2022-12-14T12:05:22.717Z,22.13
2022-12-14T12:07:55.520Z,20.40
2022-12-14T12:10:50.119Z,17.07
2022-12-14T12:13:27.397Z,17.53
2022-12-14T12:16:00.062Z,20.23
2022-12-14T12:18:46.508Z,16.93
2022-12-14T12:24:23.360Z,19.75
2022-12-14T12:26:56.140Z,21.13
2022-12-14T12:29:34.752Z,22.47
2022-12-14T12:32:28.242Z,19.70
2022-12-14T12:35:11.286Z,18.87
2022-12-14T12:37:44.822Z,18.80
2022-12-14T12:40:30.375Z,19.07
2022-12-14T12:43:26.849Z,17.50
2022-12-14T12:45:59.852Z,17.57
2022-12-14T12:48:32.743Z,15.38
2022-12-14T12:51:15.148Z,19.85
2022-12-14T12:53:48.234Z,18.70
2022-12-14T12:56:23.668Z,21.50
2022-12-14T12:58:54.437Z,17.27
2022-12-14T13:01:39.013Z,18.87
2022-12-14T13:04:11.511Z,17.77
2022-12-14T13:06:44.275Z,14.53
2022-12-14T13:09:28.374Z,18.27
2022-12-14T13:11:59.436Z,20.50
2022-12-14T13:14:34.782Z,14.63
2022-12-14T13:17:07.423Z,13.80
2022-12-14T13:19:52.485Z,12.97
2022-12-14T13:22:17.302Z,13.60
2022-12-14T13:24:55.548Z,12.17
2022-12-14T13:27:41.931Z,12.13
2022-12-14T13:30:28.563Z,12.47
2022-12-14T13:33:09.639Z,10.43
2022-12-14T13:35:48.119Z,11.43
2022-12-14T13:38:43.192Z,13.83
2022-12-14T13:41:36.701Z,12.47
2022-12-14T13:44:41.947Z,15.37
2022-12-14T13:47:09.276Z,14.00
2022-12-14T13:49:39.699Z,7.63
2022-12-14T13:52:13.764Z,12.40
2022-12-14T13:54:43.612Z,12.20
2022-12-14T13:57:17.438Z,12.07
2022-12-14T13:59:52.515Z,13.30
2022-12-14T14:02:34.086Z,14.53
2022-12-14T14:05:24.081Z,15.57
2022-12-14T14:08:04.900Z,15.80
2022-12-14T14:10:39.773Z,12.17
2022-12-14T14:13:30.411Z,15.00
2022-12-14T14:16:27.433Z,13.17
2022-12-14T14:18:37.919Z,16.10
2022-12-14T14:21:31.523Z,15.97
2022-12-14T14:24:04.440Z,13.83
2022-12-14T14:26:37.393Z,17.07
2022-12-14T14:29:29.723Z,11.93
2022-12-14T14:32:02.600Z,15.87
2022-12-14T14:34:37.924Z,15.47
2022-12-14T14:37:25.867Z,16.93
2022-12-14T14:40:22.143Z,15.73
2022-12-14T14:43:09.864Z,18.17
2022-12-14T14:45:45.971Z,21.45
2022-12-14T14:50:55.251Z,14.63
2022-12-14T14:53:39.090Z,15.60
2022-12-14T14:56:36.858Z,15.13
2022-12-14T14:59:21.413Z,17.87
2022-12-14T15:01:58.146Z,19.23
2022-12-14T15:04:39.217Z,22.13
2022-12-14T15:07:11.822Z,14.60
2022-12-14T15:09:53.306Z,20.50
2022-12-14T15:12:31.655Z,16.93
2022-12-14T15:15:16.598Z,17.10
2022-12-14T15:17:47.176Z,20.07
2022-12-14T15:20:24.411Z,20.88
2022-12-14T15:22:55.950Z,19.17
2022-12-14T15:25:28.551Z,17.33
2022-12-14T15:28:05.169Z,16.63
2022-12-14T15:30:36.455Z,17.33
2022-12-14T15:33:08.689Z,16.63
2022-12-14T15:35:42.505Z,17.57
2022-12-14T15:38:17.661Z,18.77
2022-12-14T15:40:58.668Z,21.00
2022-12-14T15:43:29.461Z,16.23
2022-12-14T15:46:04.693Z,18.30
2022-12-14T15:48:35.298Z,16.63
2022-12-14T15:51:08.411Z,19.73
2022-12-14T15:53:50.769Z,17.83
2022-12-14T15:56:44.561Z,17.23
2022-12-14T15:59:35.207Z,17.23
2022-12-14T16:02:25.387Z,20.37
2022-12-14T16:04:56.561Z,16.97
2022-12-14T16:07:29.168Z,23.65
2022-12-14T16:10:02.129Z,20.03
2022-12-14T16:12:44.663Z,17.33
2022-12-14T16:15:26.702Z,18.60
2022-12-14T16:18:02.119Z,19.07
2022-12-14T16:20:32.931Z,20.43
2022-12-14T16:23:17.420Z,15.27
2022-12-14T16:25:58.869Z,22.60
2022-12-14T16:28:34.089Z,18.27
2022-12-14T16:31:09.549Z,20.75
2022-12-14T16:33:41.933Z,20.80
2022-12-14T16:36:26.465Z,18.87
2022-12-14T16:38:59.790Z,21.82
2022-12-14T16:41:41.019Z,17.50
2022-12-14T16:44:22.143Z,22.32
2022-12-14T16:47:03.355Z,17.93
2022-12-14T16:52:26.356Z,20.55
2022-12-14T16:55:14.224Z,18.90
2022-12-14T16:57:55.690Z,19.20
2022-12-14T17:00:39.677Z,15.00
2022-12-14T17:03:23.040Z,19.83
2022-12-14T17:05:58.109Z,18.30
2022-12-14T17:08:27.825Z,17.67
2022-12-14T17:10:58.089Z,17.15
2022-12-14T17:13:28.296Z,18.00
2022-12-14T17:16:01.079Z,18.10
2022-12-14T17:18:33.892Z,23.93
2022-12-14T17:21:05.416Z,21.60
2022-12-14T17:23:41.022Z,29.00
2022-12-14T17:26:22.017Z,37.83
2022-12-14T17:28:52.437Z,29.43
2022-12-14T17:31:25.590Z,25.55
2022-12-14T17:33:57.644Z,20.62
2022-12-14T17:36:27.163Z,24.23
2022-12-14T17:38:56.909Z,21.87
2022-12-14T17:41:28.224Z,28.73
2022-12-14T17:44:02.525Z,26.00
2022-12-14T17:46:32.733Z,23.00
2022-12-14T17:49:06.441Z,29.07
2022-12-14T17:51:38.276Z,30.87
2022-12-14T17:54:19.214Z,29.97
2022-12-14T17:56:49.250Z,29.00
2022-12-14T17:59:19.005Z,24.77
2022-12-14T18:01:48.885Z,26.60
2022-12-14T18:04:19.351Z,28.40
2022-12-14T18:06:49.101Z,32.77
2022-12-14T18:09:19.172Z,28.23
2022-12-14T18:12:20.908Z,27.77
2022-12-14T18:14:20.675Z,26.37
2022-12-14T18:16:50.724Z,30.35
2022-12-14T18:19:20.479Z,29.57
2022-12-14T18:21:50.239Z,32.93
2022-12-14T18:24:25.635Z,27.22
2022-12-14T18:26:51.252Z,31.62
2022-12-14T18:29:21.131Z,34.30
2022-12-14T18:31:51.432Z,32.03
2022-12-14T18:34:21.007Z,32.80
2022-12-14T18:36:50.815Z,38.93
2022-12-14T18:42:10.513Z,40.70
2022-12-14T18:44:40.248Z,35.67
2022-12-14T18:47:40.028Z,31.30
2022-12-14T18:49:41.461Z,29.93
2022-12-14T18:52:13.539Z,29.85
2022-12-14T18:54:43.583Z,30.72
2022-12-14T18:57:13.333Z,31.53
2022-12-14T18:59:43.074Z,30.83
2022-12-14T19:02:15.671Z,27.57
2022-12-14T19:04:49.534Z,33.03
2022-12-14T19:07:19.595Z,35.45
2022-12-14T19:09:49.424Z,33.60
2022-12-14T19:12:19.501Z,27.10
2022-12-14T19:14:50.417Z,27.70
2022-12-14T19:17:20.166Z,27.57
2022-12-14T19:19:49.898Z,26.80
2022-12-14T19:22:20.512Z,38.28
2022-12-14T19:24:52.589Z,36.60
2022-12-14T19:27:42.698Z,30.97
2022-12-14T19:29:53.446Z,35.73
2022-12-14T19:32:24.707Z,34.70
2022-12-14T19:34:54.907Z,33.83
2022-12-14T19:37:24.657Z,35.33
2022-12-14T19:39:54.965Z,32.23
2022-12-14T19:42:24.441Z,29.80
2022-12-14T19:44:54.185Z,32.10
2022-12-14T19:47:23.947Z,36.70
2022-12-14T19:49:53.672Z,36.07
2022-12-14T19:52:23.224Z,28.40
2022-12-14T19:54:53.034Z,29.50
2022-12-14T19:57:22.845Z,24.97
2022-12-14T19:59:53.926Z,35.57
2022-12-14T20:02:23.844Z,29.02
2022-12-14T20:04:53.676Z,27.00
2022-12-14T20:07:23.437Z,26.87
2022-12-14T20:09:53.176Z,32.23
2022-12-14T20:12:22.920Z,30.03
2022-12-14T20:14:52.730Z,29.40
2022-12-14T20:17:22.479Z,36.80
2022-12-14T20:19:52.512Z,29.60
2022-12-14T20:22:21.958Z,34.60
2022-12-14T20:24:51.711Z,33.10
2022-12-14T20:27:21.768Z,31.73
2022-12-14T20:29:51.398Z,39.20
2022-12-14T20:32:21.466Z,38.20
2022-12-14T20:34:51.233Z,39.47
2022-12-14T20:37:20.984Z,40.33
2022-12-14T20:39:50.717Z,36.57
2022-12-14T20:42:20.169Z,35.90
2022-12-14T20:44:49.904Z,38.50
2022-12-14T20:47:19.746Z,31.70
2022-12-14T20:49:49.540Z,36.50
2022-12-14T20:52:19.007Z,40.67
2022-12-14T20:54:50.740Z,33.43
2022-12-14T20:57:20.768Z,34.55
2022-12-14T20:59:50.506Z,33.70
2022-12-14T21:02:21.625Z,31.60
2022-12-14T21:04:51.582Z,29.07
2022-12-14T21:07:25.895Z,30.30
2022-12-14T21:09:52.834Z,36.20
2022-12-14T21:12:22.283Z,38.87
2022-12-14T21:14:53.955Z,37.17
2022-12-14T21:17:26.197Z,30.97
2022-12-14T21:19:56.011Z,41.27
2022-12-14T21:22:30.197Z,34.87
2022-12-14T21:25:03.727Z,32.37
2022-12-14T21:27:31.257Z,31.80
2022-12-14T21:30:01.786Z,30.97
2022-12-14T21:32:31.808Z,31.87
2022-12-14T21:35:01.592Z,31.57
2022-12-14T21:37:31.652Z,32.48
2022-12-14T21:40:03.574Z,37.17
2022-12-14T21:42:33.595Z,37.42
2022-12-14T21:45:04.799Z,40.35
2022-12-14T21:47:35.208Z,43.15
2022-12-14T21:50:06.828Z,38.63
2022-12-14T21:52:36.801Z,37.77
2022-12-14T21:55:09.279Z,37.73
2022-12-14T21:57:57.192Z,41.17
2022-12-14T22:00:26.728Z,28.23
2022-12-14T22:02:56.628Z,30.00
2022-12-14T22:05:26.185Z,29.02
2022-12-14T22:07:55.930Z,27.17
2022-12-14T22:10:25.665Z,32.17
2022-12-14T22:12:55.156Z,31.00
2022-12-14T22:15:24.886Z,31.68
2022-12-14T22:17:54.628Z,35.10
2022-12-14T22:20:24.686Z,32.00
2022-12-14T22:22:54.732Z,30.90
2022-12-14T22:25:24.549Z,30.48
2022-12-14T22:27:54.659Z,32.30
2022-12-14T22:30:29.920Z,32.20
2022-12-14T22:32:55.670Z,31.23
2022-12-14T22:35:25.123Z,33.20
2022-12-14T22:37:55.131Z,38.57
2022-12-14T22:40:24.618Z,30.40
2022-12-14T22:42:55.634Z,31.40
2022-12-14T22:45:26.591Z,31.40
2022-12-14T22:47:56.896Z,30.65
2022-12-14T22:50:26.529Z,38.10
2022-12-14T22:52:56.567Z,31.73
2022-12-14T22:55:28.402Z,35.00
2022-12-14T22:57:58.677Z,30.00
2022-12-14T23:00:28.123Z,34.40
2022-12-14T23:02:58.052Z,35.67
2022-12-14T23:05:28.034Z,38.30
2022-12-14T23:07:57.762Z,31.97
2022-12-14T23:10:45.144Z,36.53
2022-12-14T23:13:34.292Z,28.67
2022-12-14T23:16:24.260Z,34.80
2022-12-14T23:19:11.956Z,35.27
2022-12-14T23:21:59.020Z,32.10
2022-12-14T23:24:46.437Z,38.70
2022-12-14T23:27:33.764Z,32.03
2022-12-14T23:30:21.222Z,35.80
2022-12-14T23:33:08.515Z,37.83
2022-12-14T23:35:55.662Z,30.07
2022-12-14T23:38:42.876Z,34.10
2022-12-14T23:41:29.993Z,34.70
2022-12-14T23:44:17.063Z,30.50
2022-12-14T23:47:04.234Z,32.50
2022-12-14T23:49:51.552Z,34.17
2022-12-14T23:52:38.789Z,33.03
2022-12-14T23:55:27.021Z,26.13
2022-12-14T23:58:16.104Z,29.93
